sensor_id;sensor_type;location;lat;lon;timestamp;temperature;humidity
16825;DHT22;8529;48.108;-1.706;2022-12-29T00:01:33;10.90;99.90
16825;DHT22;8529;48.108;-1.706;2022-12-29T00:04:00;10.90;99.90
16825;DHT22;8529;48.108;-1.706;2022-12-29T00:06:28;10.90;99.90
16825;DHT22;8529;48.108;-1.706;2022-12-29T00:08:55;10.90;99.90
16825;DHT22;8529;48.108;-1.706;2022-12-29T00:11:24;11.00;99.90
16825;DHT22;8529;48.108;-1.706;2022-12-29T00:13:53;11.00;99.90
16825;DHT22;8529;48.108;-1.706;2022-12-29T00:16:41;11.00;99.90
16825;DHT22;8529;48.108;-1.706;2022-12-29T00:19:08;11.00;99.90
16825;DHT22;8529;48.108;-1.706;2022-12-29T00:21:56;11.00;99.90
16825;DHT22;8529;48.108;-1.706;2022-12-29T00:24:41;11.00;99.90
16825;DHT22;8529;48.108;-1.706;2022-12-29T00:27:27;11.00;99.90
16825;DHT22;8529;48.108;-1.706;2022-12-29T00:30:14;11.00;99.90
16825;DHT22;8529;48.108;-1.706;2022-12-29T00:33:00;11.00;99.90
16825;DHT22;8529;48.108;-1.706;2022-12-29T00:35:47;11.00;99.90
16825;DHT22;8529;48.108;-1.706;2022-12-29T00:38:18;11.00;99.90
16825;DHT22;8529;48.108;-1.706;2022-12-29T00:41:03;11.00;99.90
16825;DHT22;8529;48.108;-1.706;2022-12-29T00:43:47;11.00;99.90
16825;DHT22;8529;48.108;-1.706;2022-12-29T00:46:33;11.00;99.90
16825;DHT22;8529;48.108;-1.706;2022-12-29T00:49:02;11.00;99.90
16825;DHT22;8529;48.108;-1.706;2022-12-29T00:51:47;11.00;99.90
16825;DHT22;8529;48.108;-1.706;2022-12-29T00:54:15;11.00;99.90
16825;DHT22;8529;48.108;-1.706;2022-12-29T00:56:42;11.00;99.90
16825;DHT22;8529;48.108;-1.706;2022-12-29T00:59:10;11.00;99.90
16825;DHT22;8529;48.108;-1.706;2022-12-29T01:01:38;11.00;99.90
16825;DHT22;8529;48.108;-1.706;2022-12-29T01:04:07;11.00;99.90
16825;DHT22;8529;48.108;-1.706;2022-12-29T01:06:36;11.00;99.90
16825;DHT22;8529;48.108;-1.706;2022-12-29T01:09:03;11.00;99.90
16825;DHT22;8529;48.108;-1.706;2022-12-29T01:11:47;10.90;99.90
16825;DHT22;8529;48.108;-1.706;2022-12-29T01:14:14;10.90;99.90
16825;DHT22;8529;48.108;-1.706;2022-12-29T01:16:41;10.90;99.90
16825;DHT22;8529;48.108;-1.706;2022-12-29T01:19:10;10.90;99.90
16825;DHT22;8529;48.108;-1.706;2022-12-29T01:21:37;10.80;99.90
16825;DHT22;8529;48.108;-1.706;2022-12-29T01:24:04;10.80;99.90
16825;DHT22;8529;48.108;-1.706;2022-12-29T01:26:31;10.80;99.90
16825;DHT22;8529;48.108;-1.706;2022-12-29T01:28:58;10.80;99.90
16825;DHT22;8529;48.108;-1.706;2022-12-29T01:31:25;10.80;99.90
16825;DHT22;8529;48.108;-1.706;2022-12-29T01:33:52;10.80;99.90
16825;DHT22;8529;48.108;-1.706;2022-12-29T01:36:21;10.80;99.90
16825;DHT22;8529;48.108;-1.706;2022-12-29T01:38:48;10.80;99.90
16825;DHT22;8529;48.108;-1.706;2022-12-29T01:41:16;10.80;99.90
16825;DHT22;8529;48.108;-1.706;2022-12-29T01:43:45;10.80;99.90
16825;DHT22;8529;48.108;-1.706;2022-12-29T01:46:19;10.80;99.90
16825;DHT22;8529;48.108;-1.706;2022-12-29T01:48:48;10.80;99.90
16825;DHT22;8529;48.108;-1.706;2022-12-29T01:51:16;10.80;99.90
16825;DHT22;8529;48.108;-1.706;2022-12-29T01:53:45;10.70;99.90
16825;DHT22;8529;48.108;-1.706;2022-12-29T01:56:16;10.70;99.90
16825;DHT22;8529;48.108;-1.706;2022-12-29T01:58:48;10.70;99.90
16825;DHT22;8529;48.108;-1.706;2022-12-29T02:01:17;10.70;99.90
16825;DHT22;8529;48.108;-1.706;2022-12-29T02:03:45;10.70;99.90
16825;DHT22;8529;48.108;-1.706;2022-12-29T02:06:16;10.70;99.90
16825;DHT22;8529;48.108;-1.706;2022-12-29T02:08:47;10.70;99.90
16825;DHT22;8529;48.108;-1.706;2022-12-29T02:11:16;10.70;99.90
16825;DHT22;8529;48.108;-1.706;2022-12-29T02:13:43;10.70;99.90
16825;DHT22;8529;48.108;-1.706;2022-12-29T02:16:29;10.80;99.90
16825;DHT22;8529;48.108;-1.706;2022-12-29T02:19:12;10.80;99.90
16825;DHT22;8529;48.108;-1.706;2022-12-29T02:22:05;10.80;99.90
16825;DHT22;8529;48.108;-1.706;2022-12-29T02:25:22;10.70;99.90
16825;DHT22;8529;48.108;-1.706;2022-12-29T02:28:22;10.70;99.90
16825;DHT22;8529;48.108;-1.706;2022-12-29T02:31:00;10.70;99.90
16825;DHT22;8529;48.108;-1.706;2022-12-29T02:33:39;10.70;99.90
16825;DHT22;8529;48.108;-1.706;2022-12-29T02:36:14;10.70;99.90
16825;DHT22;8529;48.108;-1.706;2022-12-29T02:38:53;10.70;99.90
16825;DHT22;8529;48.108;-1.706;2022-12-29T02:41:29;10.70;99.90
16825;DHT22;8529;48.108;-1.706;2022-12-29T02:44:03;10.70;99.90
16825;DHT22;8529;48.108;-1.706;2022-12-29T02:46:35;10.70;99.90
16825;DHT22;8529;48.108;-1.706;2022-12-29T02:49:08;10.70;99.90
16825;DHT22;8529;48.108;-1.706;2022-12-29T02:51:45;10.70;99.90
16825;DHT22;8529;48.108;-1.706;2022-12-29T02:54:16;10.70;99.90
16825;DHT22;8529;48.108;-1.706;2022-12-29T02:57:02;10.70;99.90
16825;DHT22;8529;48.108;-1.706;2022-12-29T02:59:29;10.70;99.90
16825;DHT22;8529;48.108;-1.706;2022-12-29T03:02:14;10.70;99.90
16825;DHT22;8529;48.108;-1.706;2022-12-29T03:05:09;10.70;99.90
16825;DHT22;8529;48.108;-1.706;2022-12-29T03:07:45;10.70;99.90
16825;DHT22;8529;48.108;-1.706;2022-12-29T03:10:24;10.70;99.90
16825;DHT22;8529;48.108;-1.706;2022-12-29T03:13:02;10.70;99.90
16825;DHT22;8529;48.108;-1.706;2022-12-29T03:15:53;10.70;99.90
16825;DHT22;8529;48.108;-1.706;2022-12-29T03:18:42;10.70;99.90
16825;DHT22;8529;48.108;-1.706;2022-12-29T03:21:16;10.70;99.90
16825;DHT22;8529;48.108;-1.706;2022-12-29T03:23:46;10.70;99.90
16825;DHT22;8529;48.108;-1.706;2022-12-29T03:26:17;10.70;99.90
16825;DHT22;8529;48.108;-1.706;2022-12-29T03:28:48;10.70;99.90
16825;DHT22;8529;48.108;-1.706;2022-12-29T03:31:19;10.70;99.90
16825;DHT22;8529;48.108;-1.706;2022-12-29T03:33:49;10.70;99.90
16825;DHT22;8529;48.108;-1.706;2022-12-29T03:36:19;10.60;99.90
16825;DHT22;8529;48.108;-1.706;2022-12-29T03:38:53;10.60;99.90
16825;DHT22;8529;48.108;-1.706;2022-12-29T03:41:27;10.60;99.90
16825;DHT22;8529;48.108;-1.706;2022-12-29T03:43:55;10.60;99.90
16825;DHT22;8529;48.108;-1.706;2022-12-29T03:46:22;10.60;99.90
16825;DHT22;8529;48.108;-1.706;2022-12-29T03:48:50;10.60;99.90
16825;DHT22;8529;48.108;-1.706;2022-12-29T03:51:17;10.50;99.90
16825;DHT22;8529;48.108;-1.706;2022-12-29T03:53:44;10.50;99.90
16825;DHT22;8529;48.108;-1.706;2022-12-29T03:56:11;10.50;99.90
16825;DHT22;8529;48.108;-1.706;2022-12-29T03:58:38;10.50;99.90
16825;DHT22;8529;48.108;-1.706;2022-12-29T04:01:05;10.50;99.90
16825;DHT22;8529;48.108;-1.706;2022-12-29T04:03:32;10.50;99.90
16825;DHT22;8529;48.108;-1.706;2022-12-29T04:06:00;10.50;99.90
16825;DHT22;8529;48.108;-1.706;2022-12-29T04:08:27;10.40;99.90
16825;DHT22;8529;48.108;-1.706;2022-12-29T04:10:54;10.40;99.90
16825;DHT22;8529;48.108;-1.706;2022-12-29T04:13:21;10.40;99.90
16825;DHT22;8529;48.108;-1.706;2022-12-29T04:15:48;10.40;99.90
16825;DHT22;8529;48.108;-1.706;2022-12-29T04:18:15;10.40;99.90
16825;DHT22;8529;48.108;-1.706;2022-12-29T04:20:44;10.40;99.90
16825;DHT22;8529;48.108;-1.706;2022-12-29T04:23:30;10.40;99.90
16825;DHT22;8529;48.108;-1.706;2022-12-29T04:25:57;10.40;99.90
16825;DHT22;8529;48.108;-1.706;2022-12-29T04:28:24;10.40;99.90
16825;DHT22;8529;48.108;-1.706;2022-12-29T04:30:51;10.30;99.90
16825;DHT22;8529;48.108;-1.706;2022-12-29T04:33:18;10.40;99.90
16825;DHT22;8529;48.108;-1.706;2022-12-29T04:35:46;10.30;99.90
16825;DHT22;8529;48.108;-1.706;2022-12-29T04:38:13;10.30;99.90
16825;DHT22;8529;48.108;-1.706;2022-12-29T04:40:43;10.30;99.90
16825;DHT22;8529;48.108;-1.706;2022-12-29T04:43:10;10.30;99.90
16825;DHT22;8529;48.108;-1.706;2022-12-29T04:45:37;10.30;99.90
16825;DHT22;8529;48.108;-1.706;2022-12-29T04:48:05;10.30;99.90
16825;DHT22;8529;48.108;-1.706;2022-12-29T04:50:32;10.20;99.90
16825;DHT22;8529;48.108;-1.706;2022-12-29T04:52:59;10.20;99.90
16825;DHT22;8529;48.108;-1.706;2022-12-29T04:55:26;10.20;99.90
16825;DHT22;8529;48.108;-1.706;2022-12-29T04:57:54;10.20;99.90
16825;DHT22;8529;48.108;-1.706;2022-12-29T05:00:21;10.20;99.90
16825;DHT22;8529;48.108;-1.706;2022-12-29T05:02:48;10.20;99.90
16825;DHT22;8529;48.108;-1.706;2022-12-29T05:05:16;10.10;99.90
16825;DHT22;8529;48.108;-1.706;2022-12-29T05:07:43;10.10;99.90
16825;DHT22;8529;48.108;-1.706;2022-12-29T05:10:10;10.10;99.90
16825;DHT22;8529;48.108;-1.706;2022-12-29T05:12:37;10.10;99.90
16825;DHT22;8529;48.108;-1.706;2022-12-29T05:15:08;10.10;99.90
16825;DHT22;8529;48.108;-1.706;2022-12-29T05:17:35;10.10;99.90
16825;DHT22;8529;48.108;-1.706;2022-12-29T05:20:02;10.00;99.90
16825;DHT22;8529;48.108;-1.706;2022-12-29T05:22:30;10.00;99.90
16825;DHT22;8529;48.108;-1.706;2022-12-29T05:24:56;10.00;99.90
16825;DHT22;8529;48.108;-1.706;2022-12-29T05:27:23;10.00;99.90
16825;DHT22;8529;48.108;-1.706;2022-12-29T05:29:50;10.00;99.90
16825;DHT22;8529;48.108;-1.706;2022-12-29T05:32:19;9.90;99.90
16825;DHT22;8529;48.108;-1.706;2022-12-29T05:34:46;9.90;99.90
16825;DHT22;8529;48.108;-1.706;2022-12-29T05:37:13;9.90;99.90
16825;DHT22;8529;48.108;-1.706;2022-12-29T05:39:40;9.90;99.90
16825;DHT22;8529;48.108;-1.706;2022-12-29T05:42:07;9.80;99.90
16825;DHT22;8529;48.108;-1.706;2022-12-29T05:44:34;9.80;99.90
16825;DHT22;8529;48.108;-1.706;2022-12-29T05:47:01;9.80;99.90
16825;DHT22;8529;48.108;-1.706;2022-12-29T05:49:29;9.80;99.90
16825;DHT22;8529;48.108;-1.706;2022-12-29T05:51:56;9.80;99.90
16825;DHT22;8529;48.108;-1.706;2022-12-29T05:54:23;9.80;99.90
16825;DHT22;8529;48.108;-1.706;2022-12-29T05:56:50;9.70;99.90
16825;DHT22;8529;48.108;-1.706;2022-12-29T05:59:17;9.70;99.90
16825;DHT22;8529;48.108;-1.706;2022-12-29T06:01:44;9.70;99.90
16825;DHT22;8529;48.108;-1.706;2022-12-29T06:04:11;9.70;99.90
16825;DHT22;8529;48.108;-1.706;2022-12-29T06:06:39;9.70;99.90
16825;DHT22;8529;48.108;-1.706;2022-12-29T06:09:09;9.70;99.90
16825;DHT22;8529;48.108;-1.706;2022-12-29T06:11:36;9.70;99.90
16825;DHT22;8529;48.108;-1.706;2022-12-29T06:14:03;9.70;99.90
16825;DHT22;8529;48.108;-1.706;2022-12-29T06:16:30;9.70;99.90
16825;DHT22;8529;48.108;-1.706;2022-12-29T06:18:57;9.70;99.90
16825;DHT22;8529;48.108;-1.706;2022-12-29T06:21:24;9.70;99.90
16825;DHT22;8529;48.108;-1.706;2022-12-29T06:23:52;9.60;99.90
16825;DHT22;8529;48.108;-1.706;2022-12-29T06:26:19;9.60;99.90
16825;DHT22;8529;48.108;-1.706;2022-12-29T06:28:46;9.60;99.90
16825;DHT22;8529;48.108;-1.706;2022-12-29T06:31:13;9.60;99.90
16825;DHT22;8529;48.108;-1.706;2022-12-29T06:33:40;9.60;99.90
16825;DHT22;8529;48.108;-1.706;2022-12-29T06:36:07;9.70;99.90
16825;DHT22;8529;48.108;-1.706;2022-12-29T06:38:34;9.60;99.90
16825;DHT22;8529;48.108;-1.706;2022-12-29T06:41:03;9.60;99.90
16825;DHT22;8529;48.108;-1.706;2022-12-29T06:43:30;9.50;99.90
16825;DHT22;8529;48.108;-1.706;2022-12-29T06:45:57;9.50;99.90
16825;DHT22;8529;48.108;-1.706;2022-12-29T06:48:24;9.50;99.90
16825;DHT22;8529;48.108;-1.706;2022-12-29T06:50:51;9.50;99.90
16825;DHT22;8529;48.108;-1.706;2022-12-29T06:53:18;9.40;99.90
16825;DHT22;8529;48.108;-1.706;2022-12-29T06:55:45;9.40;99.90
16825;DHT22;8529;48.108;-1.706;2022-12-29T06:58:14;9.40;99.90
16825;DHT22;8529;48.108;-1.706;2022-12-29T07:00:40;9.40;99.90
16825;DHT22;8529;48.108;-1.706;2022-12-29T07:03:07;9.40;99.90
16825;DHT22;8529;48.108;-1.706;2022-12-29T07:05:34;9.50;99.90
16825;DHT22;8529;48.108;-1.706;2022-12-29T07:08:01;9.50;99.90
16825;DHT22;8529;48.108;-1.706;2022-12-29T07:10:28;9.60;99.90
16825;DHT22;8529;48.108;-1.706;2022-12-29T07:12:55;9.60;99.90
16825;DHT22;8529;48.108;-1.706;2022-12-29T07:15:23;9.60;99.90
16825;DHT22;8529;48.108;-1.706;2022-12-29T07:17:50;9.60;99.90
16825;DHT22;8529;48.108;-1.706;2022-12-29T07:20:17;9.60;99.90
16825;DHT22;8529;48.108;-1.706;2022-12-29T07:22:44;9.60;99.90
16825;DHT22;8529;48.108;-1.706;2022-12-29T07:25:12;9.60;99.90
16825;DHT22;8529;48.108;-1.706;2022-12-29T07:27:39;9.50;99.90
16825;DHT22;8529;48.108;-1.706;2022-12-29T07:30:07;9.50;99.90
16825;DHT22;8529;48.108;-1.706;2022-12-29T07:32:36;9.50;99.90
16825;DHT22;8529;48.108;-1.706;2022-12-29T07:35:03;9.50;99.90
16825;DHT22;8529;48.108;-1.706;2022-12-29T07:37:30;9.50;99.90
16825;DHT22;8529;48.108;-1.706;2022-12-29T07:39:57;9.50;99.90
16825;DHT22;8529;48.108;-1.706;2022-12-29T07:42:24;9.40;99.90
16825;DHT22;8529;48.108;-1.706;2022-12-29T07:44:51;9.40;99.90
16825;DHT22;8529;48.108;-1.706;2022-12-29T07:47:18;9.40;99.90
16825;DHT22;8529;48.108;-1.706;2022-12-29T07:49:46;9.40;99.90
16825;DHT22;8529;48.108;-1.706;2022-12-29T07:52:13;9.40;99.90
16825;DHT22;8529;48.108;-1.706;2022-12-29T07:54:40;9.30;99.90
16825;DHT22;8529;48.108;-1.706;2022-12-29T07:57:07;9.30;99.90
16825;DHT22;8529;48.108;-1.706;2022-12-29T07:59:34;9.40;99.90
16825;DHT22;8529;48.108;-1.706;2022-12-29T08:02:01;9.40;99.90
16825;DHT22;8529;48.108;-1.706;2022-12-29T08:04:28;9.40;99.90
16825;DHT22;8529;48.108;-1.706;2022-12-29T08:06:56;9.30;99.90
16825;DHT22;8529;48.108;-1.706;2022-12-29T08:09:23;9.30;99.90
16825;DHT22;8529;48.108;-1.706;2022-12-29T08:11:50;9.30;99.90
16825;DHT22;8529;48.108;-1.706;2022-12-29T08:14:17;9.30;99.90
16825;DHT22;8529;48.108;-1.706;2022-12-29T08:16:44;9.20;99.90
16825;DHT22;8529;48.108;-1.706;2022-12-29T08:19:12;9.20;99.90
16825;DHT22;8529;48.108;-1.706;2022-12-29T08:21:39;9.20;99.90
16825;DHT22;8529;48.108;-1.706;2022-12-29T08:24:08;9.20;99.90
16825;DHT22;8529;48.108;-1.706;2022-12-29T08:26:35;9.20;99.90
16825;DHT22;8529;48.108;-1.706;2022-12-29T08:29:02;9.20;99.90
16825;DHT22;8529;48.108;-1.706;2022-12-29T08:31:29;9.20;99.90
16825;DHT22;8529;48.108;-1.706;2022-12-29T08:33:56;9.20;99.90
16825;DHT22;8529;48.108;-1.706;2022-12-29T08:36:25;9.20;99.90
16825;DHT22;8529;48.108;-1.706;2022-12-29T08:38:52;9.20;99.90
16825;DHT22;8529;48.108;-1.706;2022-12-29T08:41:20;9.20;99.90
16825;DHT22;8529;48.108;-1.706;2022-12-29T08:43:49;9.20;99.90
16825;DHT22;8529;48.108;-1.706;2022-12-29T08:46:16;9.20;99.90
16825;DHT22;8529;48.108;-1.706;2022-12-29T08:48:43;9.20;99.90
16825;DHT22;8529;48.108;-1.706;2022-12-29T08:51:10;9.20;99.90
16825;DHT22;8529;48.108;-1.706;2022-12-29T08:53:37;9.20;99.90
16825;DHT22;8529;48.108;-1.706;2022-12-29T08:56:05;9.20;99.90
16825;DHT22;8529;48.108;-1.706;2022-12-29T08:58:33;9.20;99.90
16825;DHT22;8529;48.108;-1.706;2022-12-29T09:01:00;9.20;99.90
16825;DHT22;8529;48.108;-1.706;2022-12-29T09:03:27;9.20;99.90
16825;DHT22;8529;48.108;-1.706;2022-12-29T09:05:55;9.20;99.90
16825;DHT22;8529;48.108;-1.706;2022-12-29T09:08:22;9.20;99.90
16825;DHT22;8529;48.108;-1.706;2022-12-29T09:10:49;9.20;99.90
16825;DHT22;8529;48.108;-1.706;2022-12-29T09:13:17;9.20;99.90
16825;DHT22;8529;48.108;-1.706;2022-12-29T09:15:45;9.20;99.90
16825;DHT22;8529;48.108;-1.706;2022-12-29T09:18:12;9.30;99.90
16825;DHT22;8529;48.108;-1.706;2022-12-29T09:20:39;9.30;99.90
16825;DHT22;8529;48.108;-1.706;2022-12-29T09:23:06;9.30;99.90
16825;DHT22;8529;48.108;-1.706;2022-12-29T09:25:33;9.30;99.90
16825;DHT22;8529;48.108;-1.706;2022-12-29T09:28:01;9.30;99.90
16825;DHT22;8529;48.108;-1.706;2022-12-29T09:30:33;9.30;99.90
16825;DHT22;8529;48.108;-1.706;2022-12-29T09:33:01;9.40;99.90
16825;DHT22;8529;48.108;-1.706;2022-12-29T09:35:28;9.40;99.90
16825;DHT22;8529;48.108;-1.706;2022-12-29T09:37:55;9.40;99.90
16825;DHT22;8529;48.108;-1.706;2022-12-29T09:40:26;9.50;99.90
16825;DHT22;8529;48.108;-1.706;2022-12-29T09:43:17;9.50;99.90
16825;DHT22;8529;48.108;-1.706;2022-12-29T09:45:52;9.50;99.90
16825;DHT22;8529;48.108;-1.706;2022-12-29T09:48:27;9.50;99.90
16825;DHT22;8529;48.108;-1.706;2022-12-29T09:50:57;9.50;99.90
16825;DHT22;8529;48.108;-1.706;2022-12-29T09:53:28;9.60;99.90
16825;DHT22;8529;48.108;-1.706;2022-12-29T09:55:59;9.60;99.90
16825;DHT22;8529;48.108;-1.706;2022-12-29T09:58:32;9.60;99.90
16825;DHT22;8529;48.108;-1.706;2022-12-29T10:01:04;9.60;99.90
16825;DHT22;8529;48.108;-1.706;2022-12-29T10:03:44;9.60;99.90
16825;DHT22;8529;48.108;-1.706;2022-12-29T10:06:17;9.60;99.90
16825;DHT22;8529;48.108;-1.706;2022-12-29T10:08:49;9.70;99.90
16825;DHT22;8529;48.108;-1.706;2022-12-29T10:11:28;9.70;99.90
16825;DHT22;8529;48.108;-1.706;2022-12-29T10:14:12;9.70;99.90
16825;DHT22;8529;48.108;-1.706;2022-12-29T10:16:47;9.80;99.90
16825;DHT22;8529;48.108;-1.706;2022-12-29T10:19:34;9.80;99.90
16825;DHT22;8529;48.108;-1.706;2022-12-29T10:22:14;9.80;99.90
16825;DHT22;8529;48.108;-1.706;2022-12-29T10:24:45;9.90;99.90
16825;DHT22;8529;48.108;-1.706;2022-12-29T10:27:13;9.90;99.90
16825;DHT22;8529;48.108;-1.706;2022-12-29T10:29:46;9.90;99.90
16825;DHT22;8529;48.108;-1.706;2022-12-29T10:32:23;9.90;99.90
16825;DHT22;8529;48.108;-1.706;2022-12-29T10:34:55;10.00;99.90
16825;DHT22;8529;48.108;-1.706;2022-12-29T10:37:30;10.00;99.90
16825;DHT22;8529;48.108;-1.706;2022-12-29T10:39:59;10.00;99.90
16825;DHT22;8529;48.108;-1.706;2022-12-29T10:42:29;10.10;99.90
16825;DHT22;8529;48.108;-1.706;2022-12-29T10:45:00;10.10;99.90
16825;DHT22;8529;48.108;-1.706;2022-12-29T10:47:29;10.10;99.90
16825;DHT22;8529;48.108;-1.706;2022-12-29T10:50:00;10.10;99.90
16825;DHT22;8529;48.108;-1.706;2022-12-29T10:52:28;10.20;99.90
16825;DHT22;8529;48.108;-1.706;2022-12-29T10:54:59;10.20;99.90
16825;DHT22;8529;48.108;-1.706;2022-12-29T10:57:30;10.20;99.90
16825;DHT22;8529;48.108;-1.706;2022-12-29T10:59:59;10.30;99.90
16825;DHT22;8529;48.108;-1.706;2022-12-29T11:02:43;10.30;99.90
16825;DHT22;8529;48.108;-1.706;2022-12-29T11:05:21;10.40;99.90
16825;DHT22;8529;48.108;-1.706;2022-12-29T11:07:50;10.40;99.90
16825;DHT22;8529;48.108;-1.706;2022-12-29T11:10:28;10.40;99.90
16825;DHT22;8529;48.108;-1.706;2022-12-29T11:12:58;10.40;99.90
16825;DHT22;8529;48.108;-1.706;2022-12-29T11:15:25;10.50;99.90
16825;DHT22;8529;48.108;-1.706;2022-12-29T11:17:53;10.50;99.90
16825;DHT22;8529;48.108;-1.706;2022-12-29T11:20:31;10.50;99.90
16825;DHT22;8529;48.108;-1.706;2022-12-29T11:22:59;10.50;99.90
16825;DHT22;8529;48.108;-1.706;2022-12-29T11:25:26;10.60;99.90
16825;DHT22;8529;48.108;-1.706;2022-12-29T11:27:58;10.60;99.90
16825;DHT22;8529;48.108;-1.706;2022-12-29T11:30:28;10.60;99.90
16825;DHT22;8529;48.108;-1.706;2022-12-29T11:32:56;10.60;99.90
16825;DHT22;8529;48.108;-1.706;2022-12-29T11:35:34;10.70;99.90
16825;DHT22;8529;48.108;-1.706;2022-12-29T11:38:02;10.70;99.90
16825;DHT22;8529;48.108;-1.706;2022-12-29T11:40:29;10.70;99.90
16825;DHT22;8529;48.108;-1.706;2022-12-29T11:42:59;10.70;99.90
16825;DHT22;8529;48.108;-1.706;2022-12-29T11:45:31;10.80;99.90
16825;DHT22;8529;48.108;-1.706;2022-12-29T11:48:01;10.80;99.90
16825;DHT22;8529;48.108;-1.706;2022-12-29T11:50:31;10.80;99.90
16825;DHT22;8529;48.108;-1.706;2022-12-29T11:53:01;10.80;99.90
16825;DHT22;8529;48.108;-1.706;2022-12-29T11:55:29;10.80;99.90
16825;DHT22;8529;48.108;-1.706;2022-12-29T11:57:59;10.90;99.90
16825;DHT22;8529;48.108;-1.706;2022-12-29T12:00:30;10.90;99.90
16825;DHT22;8529;48.108;-1.706;2022-12-29T12:02:59;10.90;99.90
16825;DHT22;8529;48.108;-1.706;2022-12-29T12:05:35;10.90;99.90
16825;DHT22;8529;48.108;-1.706;2022-12-29T12:08:11;10.90;99.90
16825;DHT22;8529;48.108;-1.706;2022-12-29T12:10:43;11.00;99.90
16825;DHT22;8529;48.108;-1.706;2022-12-29T12:13:18;11.00;99.90
16825;DHT22;8529;48.108;-1.706;2022-12-29T12:15:51;11.00;99.90
16825;DHT22;8529;48.108;-1.706;2022-12-29T12:18:28;11.00;99.90
16825;DHT22;8529;48.108;-1.706;2022-12-29T12:21:05;11.00;99.90
16825;DHT22;8529;48.108;-1.706;2022-12-29T12:23:54;11.10;99.90
16825;DHT22;8529;48.108;-1.706;2022-12-29T12:26:29;11.10;99.90
16825;DHT22;8529;48.108;-1.706;2022-12-29T12:29:00;11.10;99.90
16825;DHT22;8529;48.108;-1.706;2022-12-29T12:31:41;11.10;99.90
16825;DHT22;8529;48.108;-1.706;2022-12-29T12:34:14;11.20;99.90
16825;DHT22;8529;48.108;-1.706;2022-12-29T12:37:11;11.30;99.90
16825;DHT22;8529;48.108;-1.706;2022-12-29T12:39:49;11.30;99.90
16825;DHT22;8529;48.108;-1.706;2022-12-29T12:42:35;11.30;99.90
16825;DHT22;8529;48.108;-1.706;2022-12-29T12:45:22;11.40;99.90
16825;DHT22;8529;48.108;-1.706;2022-12-29T12:48:01;11.40;99.90
16825;DHT22;8529;48.108;-1.706;2022-12-29T12:50:39;11.40;99.90
16825;DHT22;8529;48.108;-1.706;2022-12-29T12:53:23;11.40;99.90
16825;DHT22;8529;48.108;-1.706;2022-12-29T12:56:03;11.40;99.90
16825;DHT22;8529;48.108;-1.706;2022-12-29T12:58:43;11.40;99.90
16825;DHT22;8529;48.108;-1.706;2022-12-29T13:01:27;11.40;99.90
16825;DHT22;8529;48.108;-1.706;2022-12-29T13:06:56;11.30;99.90
16825;DHT22;8529;48.108;-1.706;2022-12-29T13:09:39;11.30;99.90
16825;DHT22;8529;48.108;-1.706;2022-12-29T13:12:18;11.30;99.90
16825;DHT22;8529;48.108;-1.706;2022-12-29T13:14:59;11.20;99.90
16825;DHT22;8529;48.108;-1.706;2022-12-29T13:17:32;11.20;99.90
16825;DHT22;8529;48.108;-1.706;2022-12-29T13:20:12;11.20;99.90
16825;DHT22;8529;48.108;-1.706;2022-12-29T13:22:52;11.10;99.90
16825;DHT22;8529;48.108;-1.706;2022-12-29T13:25:28;11.00;99.90
16825;DHT22;8529;48.108;-1.706;2022-12-29T13:28:05;10.90;99.90
16825;DHT22;8529;48.108;-1.706;2022-12-29T13:30:36;10.80;99.90
16825;DHT22;8529;48.108;-1.706;2022-12-29T13:33:24;10.70;99.90
16825;DHT22;8529;48.108;-1.706;2022-12-29T13:35:59;10.70;99.90
16825;DHT22;8529;48.108;-1.706;2022-12-29T13:38:32;10.60;99.90
16825;DHT22;8529;48.108;-1.706;2022-12-29T13:41:04;10.70;99.90
16825;DHT22;8529;48.108;-1.706;2022-12-29T13:43:35;10.80;99.90
16825;DHT22;8529;48.108;-1.706;2022-12-29T13:46:06;10.80;99.90
16825;DHT22;8529;48.108;-1.706;2022-12-29T13:48:40;10.80;99.90
16825;DHT22;8529;48.108;-1.706;2022-12-29T13:51:11;10.80;99.90
16825;DHT22;8529;48.108;-1.706;2022-12-29T13:53:49;10.80;99.90
16825;DHT22;8529;48.108;-1.706;2022-12-29T13:56:28;10.80;99.90
16825;DHT22;8529;48.108;-1.706;2022-12-29T13:59:04;10.80;99.90
16825;DHT22;8529;48.108;-1.706;2022-12-29T14:01:34;10.80;99.90
16825;DHT22;8529;48.108;-1.706;2022-12-29T14:04:08;10.90;99.90
16825;DHT22;8529;48.108;-1.706;2022-12-29T14:06:36;10.90;99.90
16825;DHT22;8529;48.108;-1.706;2022-12-29T14:11:53;10.90;99.90
16825;DHT22;8529;48.108;-1.706;2022-12-29T14:14:22;10.80;99.90
16825;DHT22;8529;48.108;-1.706;2022-12-29T14:16:50;10.80;99.90
16825;DHT22;8529;48.108;-1.706;2022-12-29T14:19:21;10.70;99.90
16825;DHT22;8529;48.108;-1.706;2022-12-29T14:21:52;10.60;99.90
16825;DHT22;8529;48.108;-1.706;2022-12-29T14:24:43;10.60;99.90
16825;DHT22;8529;48.108;-1.706;2022-12-29T14:27:51;10.60;99.90
16825;DHT22;8529;48.108;-1.706;2022-12-29T14:30:47;10.70;99.90
16825;DHT22;8529;48.108;-1.706;2022-12-29T14:33:15;10.70;99.90
16825;DHT22;8529;48.108;-1.706;2022-12-29T14:35:44;10.80;99.90
16825;DHT22;8529;48.108;-1.706;2022-12-29T14:38:23;10.80;99.90
16825;DHT22;8529;48.108;-1.706;2022-12-29T14:40:51;10.80;99.90
16825;DHT22;8529;48.108;-1.706;2022-12-29T14:43:27;10.90;99.90
16825;DHT22;8529;48.108;-1.706;2022-12-29T14:45:59;10.90;99.90
16825;DHT22;8529;48.108;-1.706;2022-12-29T14:48:35;11.00;99.90
16825;DHT22;8529;48.108;-1.706;2022-12-29T14:51:20;11.10;99.90
16825;DHT22;8529;48.108;-1.706;2022-12-29T14:53:49;11.10;99.90
16825;DHT22;8529;48.108;-1.706;2022-12-29T14:56:17;11.10;99.90
16825;DHT22;8529;48.108;-1.706;2022-12-29T14:58:52;11.10;99.90
16825;DHT22;8529;48.108;-1.706;2022-12-29T15:01:26;11.10;99.90
16825;DHT22;8529;48.108;-1.706;2022-12-29T15:03:57;11.10;99.90
16825;DHT22;8529;48.108;-1.706;2022-12-29T15:06:29;11.10;99.90
16825;DHT22;8529;48.108;-1.706;2022-12-29T15:09:02;11.00;99.90
16825;DHT22;8529;48.108;-1.706;2022-12-29T15:11:44;11.00;99.90
16825;DHT22;8529;48.108;-1.706;2022-12-29T15:14:38;11.00;99.90
16825;DHT22;8529;48.108;-1.706;2022-12-29T15:17:10;10.90;99.90
16825;DHT22;8529;48.108;-1.706;2022-12-29T15:19:38;10.80;99.90
16825;DHT22;8529;48.108;-1.706;2022-12-29T15:22:05;10.80;99.90
16825;DHT22;8529;48.108;-1.706;2022-12-29T15:24:33;10.80;99.90
16825;DHT22;8529;48.108;-1.706;2022-12-29T15:27:03;10.70;99.90
16825;DHT22;8529;48.108;-1.706;2022-12-29T15:29:39;10.70;99.90
16825;DHT22;8529;48.108;-1.706;2022-12-29T15:32:18;10.70;99.90
16825;DHT22;8529;48.108;-1.706;2022-12-29T15:34:47;10.60;99.90
16825;DHT22;8529;48.108;-1.706;2022-12-29T15:37:18;10.60;99.90
16825;DHT22;8529;48.108;-1.706;2022-12-29T15:39:45;10.60;99.90
16825;DHT22;8529;48.108;-1.706;2022-12-29T15:42:25;10.60;99.90
16825;DHT22;8529;48.108;-1.706;2022-12-29T15:44:55;10.50;99.90
16825;DHT22;8529;48.108;-1.706;2022-12-29T15:47:24;10.40;99.90
16825;DHT22;8529;48.108;-1.706;2022-12-29T15:49:59;10.40;99.90
16825;DHT22;8529;48.108;-1.706;2022-12-29T15:52:29;10.40;99.90
16825;DHT22;8529;48.108;-1.706;2022-12-29T15:54:58;10.40;99.90
16825;DHT22;8529;48.108;-1.706;2022-12-29T15:57:27;10.30;99.90
16825;DHT22;8529;48.108;-1.706;2022-12-29T15:59:56;10.30;99.90
16825;DHT22;8529;48.108;-1.706;2022-12-29T16:02:23;10.30;99.90
16825;DHT22;8529;48.108;-1.706;2022-12-29T16:04:51;10.30;99.90
16825;DHT22;8529;48.108;-1.706;2022-12-29T16:07:27;10.30;99.90
16825;DHT22;8529;48.108;-1.706;2022-12-29T16:09:56;10.30;99.90